Time;durP1;ratioP1;P1;durP2;ratioP2;P2;SDS_P1;SDS_P2;PMS_P1;PMS_P2;Temp;Humidity;BMP_temperature;BMP_pressure;BME280_temperature;BME280_humidity;BME280_pressure;Samples;Min_cycle;Max_cycle;Signal;HPM_P1;HPM_P2
2022/06/29 00:00:12;;;;;;;10.23;7.70;;;;;;;26.16;51.79;99015.94;5146328;27;20109;-73
2022/06/29 00:02:39;;;;;;;9.27;7.90;;;;;;;26.20;51.67;99026.22;5146311;27;20109;-74
2022/06/29 00:05:08;;;;;;;11.82;10.63;;;;;;;26.17;51.57;99021.16;5146301;27;20303;-74
2022/06/29 00:07:36;;;;;;;9.18;8.25;;;;;;;26.16;51.96;99018.66;5146319;27;20104;-73
2022/06/29 00:10:04;;;;;;;7.10;6.40;;;;;;;26.09;51.84;99020.44;5146071;27;20108;-73
2022/06/29 00:12:32;;;;;;;7.13;6.43;;;;;;;26.08;52.02;99016.03;5145981;27;20062;-73
2022/06/29 00:15:02;;;;;;;7.35;6.03;;;;;;;25.99;52.42;99011.78;5145714;27;20051;-74
2022/06/29 00:17:30;;;;;;;8.40;5.95;;;;;;;26.08;51.76;99008.75;5145961;27;20318;-74
2022/06/29 00:19:57;;;;;;;5.78;5.28;;;;;;;25.89;52.21;98979.47;5145845;27;20063;-73
2022/06/29 00:22:24;;;;;;;8.23;5.97;;;;;;;26.02;51.89;99009.50;5149225;27;20039;-74
2022/06/29 00:24:54;;;;;;;7.28;6.57;;;;;;;25.64;52.75;98965.41;5149675;27;20055;-73
2022/06/29 00:27:21;;;;;;;6.03;5.35;;;;;;;25.97;52.39;99013.81;5150708;27;20084;-73
2022/06/29 00:29:49;;;;;;;6.72;6.10;;;;;;;25.92;52.48;99006.22;5149387;27;20051;-74
2022/06/29 00:32:16;;;;;;;6.53;5.50;;;;;;;25.93;52.58;98994.34;5149682;27;20111;-74
2022/06/29 00:34:44;;;;;;;7.32;6.53;;;;;;;25.86;52.69;98988.84;5149590;27;20057;-73
2022/06/29 00:37:11;;;;;;;11.88;8.32;;;;;;;25.86;52.73;98996.13;5149494;27;20055;-73
2022/06/29 00:39:39;;;;;;;10.98;9.88;;;;;;;25.95;52.37;98994.97;5149396;27;20055;-74
2022/06/29 00:42:08;;;;;;;8.23;7.40;;;;;;;25.86;52.30;98996.97;5149181;27;20051;-73
2022/06/29 00:44:35;;;;;;;6.65;6.05;;;;;;;25.58;52.21;98939.88;5149404;27;20099;-74
2022/06/29 00:47:04;;;;;;;11.27;9.40;;;;;;;25.84;52.89;98990.06;5149505;27;20055;-74
2022/06/29 00:49:33;;;;;;;9.65;8.20;;;;;;;25.88;52.53;98988.63;5150029;27;20059;-74
2022/06/29 00:52:06;;;;;;;7.50;6.70;;;;;;;25.86;53.05;98988.84;5148978;27;20245;-73
2022/06/29 00:54:39;;;;;;;7.22;6.07;;;;;;;25.62;53.47;98986.44;5149195;27;20055;-73
2022/06/29 00:57:09;;;;;;;;;;;;;;;25.60;53.81;98996.66;5149412;27;20047;-73
2022/06/29 00:59:44;;;;;;;12.10;10.85;;;;;;;25.72;53.45;98984.28;5149129;27;19915;-73
2022/06/29 01:02:12;;;;;;;12.30;11.00;;;;;;;25.74;52.96;98984.94;5149348;27;20112;-73
2022/06/29 01:04:40;;;;;;;9.90;8.90;;;;;;;25.78;52.91;98986.22;5148871;27;20107;-74
2022/06/29 01:07:07;;;;;;;8.43;7.00;;;;;;;25.51;52.78;98941.66;5148986;27;20104;-73
2022/06/29 01:09:35;;;;;;;8.57;7.70;;;;;;;25.79;53.12;98977.06;5148837;27;20083;-73
2022/06/29 01:12:02;;;;;;;8.48;6.97;;;;;;;25.75;53.26;98970.31;5148834;27;20059;-73
2022/06/29 01:14:31;;;;;;;7.40;6.68;;;;;;;25.68;53.34;98969.41;5148563;27;20050;-74
2022/06/29 01:16:58;;;;;;;7.05;5.82;;;;;;;25.62;53.22;98969.31;5148574;27;20107;-74
2022/06/29 01:19:26;;;;;;;9.38;7.97;;;;;;;25.74;52.94;98967.81;5148952;27;20073;-74
2022/06/29 01:21:56;;;;;;;8.38;7.57;;;;;;;25.75;53.14;98962.19;5148690;27;20371;-74
2022/06/29 01:24:24;;;;;;;7.78;6.57;;;;;;;25.77;53.02;98959.28;5148646;27;20063;-74
2022/06/29 01:26:51;;;;;;;7.75;6.30;;;;;;;25.76;53.17;98965.75;5148474;27;20055;-74
2022/06/29 01:29:18;;;;;;;6.82;6.10;;;;;;;25.72;53.15;98978.00;5148571;27;20055;-73
2022/06/29 01:31:46;;;;;;;7.00;6.30;;;;;;;25.66;52.84;98959.78;5148166;27;20047;-74
2022/06/29 01:34:13;;;;;;;6.38;5.72;;;;;;;25.63;53.37;98980.00;5148537;27;20112;-74
2022/06/29 01:36:40;;;;;;;7.68;6.47;;;;;;;25.51;53.79;98985.06;5148614;27;20319;-76
2022/06/29 01:39:07;;;;;;;9.35;7.40;;;;;;;25.47;54.16;98978.34;5148027;27;20246;-75
2022/06/29 01:41:36;;;;;;;10.57;7.40;;;;;;;25.53;53.47;98974.03;5148340;27;20375;-75
2022/06/29 01:44:03;;;;;;;9.18;7.57;;;;;;;25.43;53.97;98971.59;5148543;27;20059;-75
2022/06/29 01:46:30;;;;;;;7.40;6.65;;;;;;;25.35;53.97;98963.56;5148265;27;20311;-75
2022/06/29 01:48:58;;;;;;;13.38;10.13;;;;;;;25.40;53.89;98955.72;5148117;27;20055;-75
2022/06/29 01:51:25;;;;;;;7.75;7.03;;;;;;;25.36;54.04;98958.97;5148188;27;20315;-75
2022/06/29 01:53:52;;;;;;;9.80;7.40;;;;;;;25.44;53.78;98951.59;5148064;27;20059;-75
2022/06/29 01:56:19;;;;;;;9.60;8.40;;;;;;;25.47;54.01;98955.78;5148216;27;20055;-75
